Time;durP1;ratioP1;P1;durP2;ratioP2;P2;SDS_P1;SDS_P2;PMS_P1;PMS_P2;Temp;Humidity;BMP_temperature;BMP_pressure;BME280_temperature;BME280_humidity;BME280_pressure;Samples;Min_cycle;Max_cycle;Signal;HPM_P1;HPM_P2
2023/03/22 00:00:12;;;;;;;8.30;5.00;;;;;;;;;;5009167;28;20045;-60
2023/03/22 00:02:38;;;;;;;9.02;5.15;;;;;;;;;;5007438;28;20034;-59
2023/03/22 00:05:05;;;;;;;8.63;4.90;;;;;;;;;;5008538;28;20037;-60
2023/03/22 00:07:31;;;;;;;10.93;5.25;;;;;;;;;;5007299;28;20042;-59
2023/03/22 00:09:57;;;;;;;8.10;5.30;;;;;;;;;;5005602;28;20064;-60
2023/03/22 00:12:23;;;;;;;9.80;5.03;;;;;;;;;;5009131;28;20050;-60
2023/03/22 00:14:51;;;;;;;8.70;5.00;;;;;;;;;;5007596;28;20499;-60
2023/03/22 00:17:17;;;;;;;6.78;4.72;;;;;;;;;;5009088;28;20053;-60
2023/03/22 00:19:43;;;;;;;8.05;4.63;;;;;;;;;;5008732;28;20033;-60
2023/03/22 00:22:10;;;;;;;11.80;4.93;;;;;;;;;;5008498;28;20038;-59
2023/03/22 00:24:36;;;;;;;8.40;4.57;;;;;;;;;;5006622;28;20046;-59
2023/03/22 00:27:03;;;;;;;7.53;4.50;;;;;;;;;;5008887;28;20040;-60
2023/03/22 00:29:29;;;;;;;7.40;4.88;;;;;;;;;;5006303;28;20030;-60
2023/03/22 00:31:55;;;;;;;9.57;4.32;;;;;;;;;;5004878;28;20053;-59
2023/03/22 00:34:22;;;;;;;8.93;4.53;;;;;;;;;;5009345;28;20056;-60
2023/03/22 00:36:48;;;;;;;8.88;4.38;;;;;;;;;;5009320;28;20059;-60
2023/03/22 00:39:14;;;;;;;9.40;5.15;;;;;;;;;;5009031;28;20045;-60
2023/03/22 00:41:40;;;;;;;7.53;4.68;;;;;;;;;;5009700;28;20038;-60
2023/03/22 00:44:06;;;;;;;11.23;4.82;;;;;;;;;;5008705;28;20101;-59
2023/03/22 00:46:33;;;;;;;8.32;4.40;;;;;;;;;;5008919;28;20045;-60
2023/03/22 00:48:59;;;;;;;6.55;4.20;;;;;;;;;;5008347;28;20045;-59
2023/03/22 00:51:25;;;;;;;8.65;4.20;;;;;;;;;;5010068;28;20581;-60
2023/03/22 00:53:52;;;;;;;11.10;4.60;;;;;;;;;;5006841;28;20056;-60
2023/03/22 00:56:21;;;;;;;8.95;4.57;;;;;;;;;;4991410;28;20049;-59
2023/03/22 00:58:56;;;;;;;7.22;4.15;;;;;;;;;;5008160;28;20054;-60
2023/03/22 01:01:22;;;;;;;7.32;4.25;;;;;;;;;;5006665;28;20566;-59
2023/03/22 01:03:51;;;;;;;8.98;4.25;;;;;;;;;;5008158;28;20037;-60
2023/03/22 01:06:17;;;;;;;7.73;4.17;;;;;;;;;;4988671;28;20526;-60
2023/03/22 01:08:44;;;;;;;8.25;4.70;;;;;;;;;;5006367;28;20041;-60
2023/03/22 01:11:11;;;;;;;7.85;4.55;;;;;;;;;;5006703;28;20438;-59
2023/03/22 01:13:38;;;;;;;7.72;4.43;;;;;;;;;;5006711;28;20487;-59
2023/03/22 01:16:05;;;;;;;7.63;4.05;;;;;;;;;;5005921;28;20037;-59
2023/03/22 01:18:34;;;;;;;7.87;4.50;;;;;;;;;;5004204;28;20050;-58
2023/03/22 01:21:01;;;;;;;7.47;4.10;;;;;;;;;;5005516;28;20296;-60
2023/03/22 01:23:27;;;;;;;6.55;3.90;;;;;;;;;;5007354;28;20050;-60
2023/03/22 01:25:53;;;;;;;8.45;4.53;;;;;;;;;;5008029;28;20038;-59
2023/03/22 01:28:20;;;;;;;8.43;3.90;;;;;;;;;;5006384;28;20037;-60
2023/03/22 01:30:46;;;;;;;6.43;3.90;;;;;;;;;;5006869;28;20049;-60
2023/03/22 01:33:12;;;;;;;7.70;3.92;;;;;;;;;;5006855;28;20056;-60
2023/03/22 01:35:38;;;;;;;7.40;4.15;;;;;;;;;;5006068;28;20072;-61
2023/03/22 01:38:05;;;;;;;8.73;4.50;;;;;;;;;;5007900;28;20041;-61
2023/03/22 01:40:34;;;;;;;7.32;4.05;;;;;;;;;;5005678;28;20038;-60
2023/03/22 01:43:01;;;;;;;6.88;4.22;;;;;;;;;;5005997;28;20550;-59
2023/03/22 01:45:47;;;;;;;7.80;4.07;;;;;;;;;;5005951;28;20062;-59
2023/03/22 01:48:20;;;;;;;6.32;3.83;;;;;;;;;;5005276;28;20046;-59
2023/03/22 01:51:07;;;;;;;7.00;4.18;;;;;;;;;;5005835;28;20061;-59
2023/03/22 01:53:44;;;;;;;6.10;4.40;;;;;;;;;;5004498;28;20514;-59
2023/03/22 01:56:11;;;;;;;10.45;4.55;;;;;;;;;;4989349;28;20443;-59
2023/03/22 01:58:39;;;;;;;9.38;4.30;;;;;;;;;;5005629;28;20045;-60
2023/03/22 02:01:09;;;;;;;6.05;3.97;;;;;;;;;;5005890;28;20041;-59
2023/03/22 02:04:01;;;;;;;7.05;4.03;;;;;;;;;;5006216;28;20041;-60
2023/03/22 02:06:31;;;;;;;6.85;4.40;;;;;;;;;;5005516;28;20050;-60
2023/03/22 02:09:10;;;;;;;7.07;3.70;;;;;;;;;;5004782;28;20034;-60
2023/03/22 02:11:40;;;;;;;10.27;4.63;;;;;;;;;;5006003;28;20046;-58
2023/03/22 02:14:30;;;;;;;8.75;4.32;;;;;;;;;;5016076;28;20041;-59
2023/03/22 02:17:31;;;;;;;7.85;4.10;;;;;;;;;;5005953;28;20046;-60
2023/03/22 02:20:27;;;;;;;5.07;3.72;;;;;;;;;;5004166;28;20052;-59
2023/03/22 02:23:08;;;;;;;6.28;4.00;;;;;;;;;;5005739;28;20193;-60
2023/03/22 02:25:40;;;;;;;7.03;4.07;;;;;;;;;;5006523;28;20037;-60
2023/03/22 02:28:28;;;;;;;12.63;7.60;;;;;;;;;;5004866;28;20053;-60
2023/03/22 02:31:16;;;;;;;8.10;3.88;;;;;;;;;;5005824;28;20052;-60
2023/03/22 02:34:08;;;;;;;8.90;4.07;;;;;;;;;;5009352;28;20053;-59
2023/03/22 02:36:54;;;;;;;7.53;4.00;;;;;;;;;;5008855;28;20044;-60
2023/03/22 02:39:41;;;;;;;7.93;4.53;;;;;;;;;;5010119;28;20543;-59
2023/03/22 02:42:27;;;;;;;8.38;4.07;;;;;;;;;;5008535;28;20053;-59
2023/03/22 02:44:56;;;;;;;8.38;4.20;;;;;;;;;;5009885;28;20033;-60
2023/03/22 02:47:33;;;;;;;12.60;4.47;;;;;;;;;;5025157;28;20040;-59
2023/03/22 02:50:07;;;;;;;7.47;4.07;;;;;;;;;;5008896;28;20034;-60
2023/03/22 02:53:17;;;;;;;6.78;4.03;;;;;;;;;;5010163;28;20061;-59
2023/03/22 02:55:52;;;;;;;7.50;4.35;;;;;;;;;;5008119;28;20042;-59
2023/03/22 02:58:22;;;;;;;7.35;4.40;;;;;;;;;;5008262;28;20056;-59
2023/03/22 03:00:53;;;;;;;9.00;4.43;;;;;;;;;;5009831;28;20038;-60
2023/03/22 03:03:23;;;;;;;10.10;4.20;;;;;;;;;;5010193;28;20049;-59
2023/03/22 03:05:54;;;;;;;7.75;4.68;;;;;;;;;;5010791;28;20037;-60
2023/03/22 03:08:22;;;;;;;6.43;4.07;;;;;;;;;;5008230;28;20040;-60
2023/03/22 03:10:50;;;;;;;8.18;4.47;;;;;;;;;;5007574;28;20041;-59
2023/03/22 03:13:17;;;;;;;7.15;3.97;;;;;;;;;;5009303;28;20514;-59
2023/03/22 03:15:51;;;;;;;7.70;4.20;;;;;;;;;;5008334;28;20061;-59
2023/03/22 03:18:26;;;;;;;7.80;4.05;;;;;;;;;;5025183;28;20041;-59
2023/03/22 03:21:01;;;;;;;8.35;4.45;;;;;;;;;;5009467;28;20049;-61
2023/03/22 03:23:36;;;;;;;6.10;3.78;;;;;;;;;;5009170;28;20033;-58
2023/03/22 03:26:12;;;;;;;13.02;4.18;;;;;;;;;;5008498;28;20045;-60
2023/03/22 03:29:02;;;;;;;6.10;3.63;;;;;;;;;;5009657;28;20046;-60
2023/03/22 03:31:39;;;;;;;8.85;5.28;;;;;;;;;;5006766;28;20045;-60
2023/03/22 03:34:14;;;;;;;8.68;4.00;;;;;;;;;;5008804;28;20033;-59
2023/03/22 03:36:47;;;;;;;16.38;4.18;;;;;;;;;;5007399;28;20029;-60
2023/03/22 03:39:14;;;;;;;8.15;4.03;;;;;;;;;;5009292;28;20060;-60
2023/03/22 03:41:44;;;;;;;8.65;4.05;;;;;;;;;;5006284;28;20034;-59
2023/03/22 03:44:11;;;;;;;;;;;;;;;;;;5008570;28;20053;-59
2023/03/22 03:46:38;;;;;;;9.10;4.25;;;;;;;;;;5009897;28;19913;-59
2023/03/22 03:49:07;;;;;;;8.32;4.60;;;;;;;;;;5008805;28;20030;-60
2023/03/22 03:51:45;;;;;;;10.20;5.45;;;;;;;;;;5008474;28;20492;-60
2023/03/22 03:54:11;;;;;;;8.05;4.30;;;;;;;;;;5009491;28;20368;-59
2023/03/22 03:56:37;;;;;;;8.95;4.70;;;;;;;;;;4991649;28;20041;-59
2023/03/22 03:59:03;;;;;;;6.68;4.40;;;;;;;;;;5008382;28;20046;-60
2023/03/22 04:01:29;;;;;;;7.78;4.50;;;;;;;;;;5007450;28;20680;-59
2023/03/22 04:04:09;;;;;;;9.00;5.47;;;;;;;;;;5005618;28;20045;-60
2023/03/22 04:06:45;;;;;;;8.50;4.53;;;;;;;;;;5008257;28;20456;-59
2023/03/22 04:09:17;;;;;;;7.60;4.38;;;;;;;;;;5007359;28;20057;-60
2023/03/22 04:11:46;;;;;;;7.40;3.80;;;;;;;;;;5007616;28;20072;-60
2023/03/22 04:14:14;;;;;;;6.25;4.03;;;;;;;;;;5007850;28;20041;-59
2023/03/22 04:16:40;;;;;;;9.98;4.13;;;;;;;;;;5007876;28;20076;-59
2023/03/22 04:19:09;;;;;;;10.60;4.82;;;;;;;;;;5008885;28;20411;-59
2023/03/22 04:21:36;;;;;;;9.93;5.40;;;;;;;;;;5007902;28;20096;-60
2023/03/22 04:24:03;;;;;;;12.40;4.75;;;;;;;;;;5005761;28;20539;-59
2023/03/22 04:26:34;;;;;;;9.15;4.75;;;;;;;;;;5006699;28;20503;-58
2023/03/22 04:29:10;;;;;;;11.93;5.13;;;;;;;;;;5007063;28;20411;-59
2023/03/22 04:31:40;;;;;;;6.97;4.15;;;;;;;;;;5007050;28;20638;-59
2023/03/22 04:34:22;;;;;;;6.78;3.72;;;;;;;;;;5008344;28;20036;-60
2023/03/22 04:36:53;;;;;;;;;;;;;;;;;;5008528;28;20029;-60
2023/03/22 04:39:26;;;;;;;7.07;4.00;;;;;;;;;;5006495;28;19918;-60
2023/03/22 04:42:13;;;;;;;9.68;4.30;;;;;;;;;;5015721;28;20045;-60
2023/03/22 04:44:40;;;;;;;7.65;4.32;;;;;;;;;;5007526;28;20049;-60
2023/03/22 04:47:06;;;;;;;8.90;4.50;;;;;;;;;;5006967;28;20034;-60
2023/03/22 04:49:33;;;;;;;10.20;4.65;;;;;;;;;;5004865;28;20407;-59
2023/03/22 04:51:59;;;;;;;9.88;5.05;;;;;;;;;;5007198;28;20435;-59
2023/03/22 04:54:36;;;;;;;12.55;4.93;;;;;;;;;;4989711;28;20038;-59
2023/03/22 04:57:03;;;;;;;11.00;4.82;;;;;;;;;;5007651;28;20034;-59
2023/03/22 04:59:35;;;;;;;8.90;4.47;;;;;;;;;;5006213;28;20372;-59
2023/03/22 05:02:01;;;;;;;6.72;4.20;;;;;;;;;;5003992;28;20057;-59
2023/03/22 05:04:32;;;;;;;15.05;4.93;;;;;;;;;;5007522;28;20029;-60
2023/03/22 05:07:05;;;;;;;13.90;5.45;;;;;;;;;;5006131;28;20046;-61
2023/03/22 05:09:41;;;;;;;9.80;5.25;;;;;;;;;;5000499;28;20040;-60
2023/03/22 05:12:08;;;;;;;8.38;4.65;;;;;;;;;;5006846;28;20042;-59
2023/03/22 05:14:53;;;;;;;11.65;4.72;;;;;;;;;;5007416;28;20131;-59
2023/03/22 05:17:24;;;;;;;10.10;4.80;;;;;;;;;;5006097;28;20609;-58
2023/03/22 05:19:53;;;;;;;10.18;4.40;;;;;;;;;;5004279;28;20057;-60
2023/03/22 05:22:21;;;;;;;12.65;4.75;;;;;;;;;;5007112;28;20038;-60
2023/03/22 05:24:49;;;;;;;8.55;4.93;;;;;;;;;;5003066;28;20098;-61
2023/03/22 05:27:29;;;;;;;10.15;5.05;;;;;;;;;;4990060;28;20038;-64
2023/03/22 05:29:57;;;;;;;10.40;5.82;;;;;;;;;;5004894;28;20057;-61
2023/03/22 05:32:36;;;;;;;10.50;5.25;;;;;;;;;;4988432;28;20372;-61
2023/03/22 05:35:03;;;;;;;15.07;7.50;;;;;;;;;;5003573;28;20041;-60
2023/03/22 05:37:37;;;;;;;13.93;6.30;;;;;;;;;;5006542;28;20057;-61
2023/03/22 05:40:04;;;;;;;20.00;8.23;;;;;;;;;;4988578;28;20049;-61
2023/03/22 05:42:36;;;;;;;17.80;7.60;;;;;;;;;;5004375;28;20037;-60
2023/03/22 05:45:15;;;;;;;16.27;6.90;;;;;;;;;;5006256;28;20042;-60
2023/03/22 05:47:44;;;;;;;17.88;8.20;;;;;;;;;;5005214;28;20038;-60
2023/03/22 05:50:15;;;;;;;;;;;;;;;;;;5006232;28;20514;-59
2023/03/22 05:52:43;;;;;;;13.00;6.22;;;;;;;;;;5005811;28;19920;-60
2023/03/22 05:55:30;;;;;;;14.88;6.75;;;;;;;;;;5005758;28;20046;-61
2023/03/22 05:58:00;;;;;;;11.18;6.60;;;;;;;;;;5005875;28;20045;-60
2023/03/22 06:00:30;;;;;;;12.30;6.63;;;;;;;;;;5003193;28;20415;-60
2023/03/22 06:03:15;;;;;;;14.82;5.43;;;;;;;;;;5005713;28;20114;-57
2023/03/22 06:05:45;;;;;;;24.10;9.88;;;;;;;;;;5007318;28;20038;-61
2023/03/22 06:08:11;;;;;;;11.85;6.72;;;;;;;;;;4999858;28;20037;-60
2023/03/22 06:10:38;;;;;;;12.98;6.93;;;;;;;;;;5008060;28;20038;-60
2023/03/22 06:13:05;;;;;;;12.32;6.45;;;;;;;;;;5009661;28;20040;-61
2023/03/22 06:15:33;;;;;;;11.53;5.83;;;;;;;;;;5008832;28;20041;-61
2023/03/22 06:18:07;;;;;;;17.73;7.55;;;;;;;;;;5006313;28;20296;-64
2023/03/22 06:20:43;;;;;;;21.10;8.55;;;;;;;;;;5005702;28;20037;-61
2023/03/22 06:23:15;;;;;;;12.02;6.10;;;;;;;;;;5010255;28;20396;-60
2023/03/22 06:25:44;;;;;;;15.80;6.55;;;;;;;;;;5009715;28;20042;-61
2023/03/22 06:28:10;;;;;;;12.98;5.82;;;;;;;;;;5009950;28;20064;-61
2023/03/22 06:30:38;;;;;;;8.40;4.40;;;;;;;;;;5004630;28;20042;-60
2023/03/22 06:33:22;;;;;;;10.93;5.65;;;;;;;;;;5008948;28;20399;-60
2023/03/22 06:35:54;;;;;;;14.07;5.32;;;;;;;;;;5009713;28;20049;-60
2023/03/22 06:38:36;;;;;;;8.45;4.65;;;;;;;;;;5010319;28;20042;-60
2023/03/22 06:41:02;;;;;;;9.07;4.57;;;;;;;;;;5010318;28;20044;-60
2023/03/22 06:43:28;;;;;;;10.40;4.57;;;;;;;;;;5009059;28;20438;-60
2023/03/22 06:46:05;;;;;;;11.18;4.47;;;;;;;;;;5000075;28;20050;-60
2023/03/22 06:48:37;;;;;;;7.32;4.45;;;;;;;;;;5004233;28;20034;-60
2023/03/22 06:51:07;;;;;;;9.20;4.78;;;;;;;;;;5005380;28;20499;-60
2023/03/22 06:53:35;;;;;;;9.68;4.15;;;;;;;;;;5033431;28;20042;-60
2023/03/22 06:56:03;;;;;;;8.55;4.38;;;;;;;;;;5008353;28;20034;-60
2023/03/22 06:58:32;;;;;;;8.90;4.43;;;;;;;;;;5004152;28;20046;-60
2023/03/22 07:00:59;;;;;;;9.88;4.53;;;;;;;;;;5005898;28;20045;-60
2023/03/22 07:03:26;;;;;;;10.40;4.88;;;;;;;;;;5008719;28;20078;-60
2023/03/22 07:06:07;;;;;;;11.60;3.75;;;;;;;;;;4992291;28;20041;-60
2023/03/22 07:08:37;;;;;;;7.00;3.65;;;;;;;;;;5006088;28;20408;-60
2023/03/22 07:11:05;;;;;;;8.60;3.58;;;;;;;;;;5007371;28;20037;-60
2023/03/22 07:13:32;;;;;;;8.63;3.40;;;;;;;;;;5034898;28;20041;-60
2023/03/22 07:16:02;;;;;;;8.60;3.10;;;;;;;;;;4990021;28;20429;-60
2023/03/22 07:18:49;;;;;;;15.75;3.95;;;;;;;;;;5006538;28;20050;-60
2023/03/22 07:21:15;;;;;;;5.57;2.95;;;;;;;;;;5006672;28;20415;-61
2023/03/22 07:23:44;;;;;;;8.40;3.50;;;;;;;;;;5000128;28;20057;-60
2023/03/22 07:26:14;;;;;;;7.90;3.53;;;;;;;;;;4990150;28;20041;-60
2023/03/22 07:28:44;;;;;;;7.53;3.53;;;;;;;;;;5001172;28;20061;-60
2023/03/22 07:31:13;;;;;;;6.28;3.08;;;;;;;;;;4999870;28;20056;-61
2023/03/22 07:33:51;;;;;;;3.65;2.33;;;;;;;;;;5020905;28;20491;-61
2023/03/22 07:36:22;;;;;;;3.75;2.47;;;;;;;;;;5006240;28;20053;-61
2023/03/22 07:38:50;;;;;;;6.63;2.88;;;;;;;;;;5007814;28;20423;-61
2023/03/22 07:41:23;;;;;;;6.68;3.20;;;;;;;;;;4984644;28;20053;-59
2023/03/22 07:43:55;;;;;;;8.30;3.15;;;;;;;;;;5005547;28;20377;-61
2023/03/22 07:46:22;;;;;;;8.32;2.83;;;;;;;;;;5003759;28;20065;-60
2023/03/22 07:49:09;;;;;;;5.88;2.45;;;;;;;;;;5006756;28;20049;-60
2023/03/22 07:51:54;;;;;;;3.65;2.70;;;;;;;;;;5007997;28;20038;-61
2023/03/22 07:54:20;;;;;;;8.85;2.50;;;;;;;;;;5006018;28;20042;-61
2023/03/22 07:56:46;;;;;;;5.55;2.35;;;;;;;;;;5023746;28;20038;-59
2023/03/22 07:59:16;;;;;;;6.85;2.63;;;;;;;;;;5007234;28;20037;-60
2023/03/22 08:01:43;;;;;;;3.72;2.22;;;;;;;;;;4990661;28;20040;-61
2023/03/22 08:04:30;;;;;;;3.70;2.40;;;;;;;;;;5006831;28;20052;-59
2023/03/22 08:06:59;;;;;;;;;;;;;;;;;;5007018;28;20030;-59
2023/03/22 08:09:27;;;;;;;69.35;19.58;;;;;;;;;;5006067;28;20347;-60
2023/03/22 08:11:53;;;;;;;6.45;3.58;;;;;;;;;;5003515;28;20041;-60
2023/03/22 08:14:19;;;;;;;4.35;2.28;;;;;;;;;;5003069;28;20057;-59
2023/03/22 08:16:45;;;;;;;3.38;2.40;;;;;;;;;;5007003;28;20038;-59
2023/03/22 08:19:12;;;;;;;5.53;2.50;;;;;;;;;;5004908;28;20141;-60
2023/03/22 08:21:38;;;;;;;4.10;2.30;;;;;;;;;;5000713;28;20056;-60
2023/03/22 08:24:08;;;;;;;4.53;2.50;;;;;;;;;;5006176;28;20052;-60
2023/03/22 08:26:49;;;;;;;3.95;2.38;;;;;;;;;;5004711;28;20029;-60
2023/03/22 08:29:22;;;;;;;4.15;2.75;;;;;;;;;;5002603;28;20038;-60
2023/03/22 08:31:49;;;;;;;5.65;2.75;;;;;;;;;;5005743;28;20057;-60
2023/03/22 08:34:16;;;;;;;5.50;3.30;;;;;;;;;;5005543;28;20053;-60
2023/03/22 08:36:42;;;;;;;5.85;2.83;;;;;;;;;;5006566;28;20050;-60
2023/03/22 08:39:09;;;;;;;4.65;2.30;;;;;;;;;;5005774;28;20434;-60
2023/03/22 08:41:43;;;;;;;5.60;2.75;;;;;;;;;;5005492;28;20049;-60
2023/03/22 08:44:10;;;;;;;6.93;2.90;;;;;;;;;;5004219;28;20046;-60
2023/03/22 08:46:36;;;;;;;4.53;2.67;;;;;;;;;;5007107;28;20037;-59
2023/03/22 08:49:03;;;;;;;4.55;2.67;;;;;;;;;;5003617;28;20056;-60
2023/03/22 08:51:34;;;;;;;4.20;2.92;;;;;;;;;;4990208;28;20037;-59
2023/03/22 08:54:15;;;;;;;6.38;2.70;;;;;;;;;;4987860;28;20056;-60
2023/03/22 08:57:02;;;;;;;11.88;4.47;;;;;;;;;;5007515;28;20030;-59
2023/03/22 08:59:51;;;;;;;6.53;2.67;;;;;;;;;;5001569;28;20065;-60
2023/03/22 09:02:29;;;;;;;12.23;2.95;;;;;;;;;;5000528;28;20328;-60
2023/03/22 09:04:56;;;;;;;8.35;2.75;;;;;;;;;;5005331;28;20041;-60
2023/03/22 09:07:23;;;;;;;3.40;2.28;;;;;;;;;;4988003;28;20042;-60
2023/03/22 09:10:10;;;;;;;3.95;2.13;;;;;;;;;;5005885;28;20065;-59
2023/03/22 09:12:39;;;;;;;5.95;3.90;;;;;;;;;;5005557;28;20033;-60
2023/03/22 09:15:07;;;;;;;7.00;3.30;;;;;;;;;;5004419;28;20203;-60
2023/03/22 09:17:35;;;;;;;6.13;2.80;;;;;;;;;;5002252;28;20050;-59
2023/03/22 09:20:02;;;;;;;7.13;2.65;;;;;;;;;;5001418;28;20053;-60
2023/03/22 09:22:29;;;;;;;6.63;2.55;;;;;;;;;;4989879;28;20064;-60
2023/03/22 09:24:56;;;;;;;5.47;2.53;;;;;;;;;;5005751;28;20594;-60
2023/03/22 09:27:22;;;;;;;6.18;2.50;;;;;;;;;;5003920;28;20041;-60
2023/03/22 09:29:50;;;;;;;5.25;2.30;;;;;;;;;;5004806;28;20041;-60
2023/03/22 09:32:17;;;;;;;6.38;2.80;;;;;;;;;;4989131;28;20054;-60
2023/03/22 09:34:48;;;;;;;9.30;3.47;;;;;;;;;;5005634;28;20037;-64
2023/03/22 09:37:14;;;;;;;6.85;2.95;;;;;;;;;;4988043;28;20034;-60
2023/03/22 09:39:46;;;;;;;6.53;3.10;;;;;;;;;;5002846;28;20061;-60
2023/03/22 09:42:22;;;;;;;6.65;3.00;;;;;;;;;;5005013;28;20499;-59
2023/03/22 09:44:49;;;;;;;7.32;2.80;;;;;;;;;;5006760;28;20048;-60
2023/03/22 09:47:42;;;;;;;4.38;3.03;;;;;;;;;;5004586;28;20050;-59
2023/03/22 09:50:28;;;;;;;6.50;2.63;;;;;;;;;;5005836;28;20049;-60
2023/03/22 09:52:55;;;;;;;5.68;2.83;;;;;;;;;;5003334;28;20037;-61
2023/03/22 09:55:38;;;;;;;8.55;2.83;;;;;;;;;;5002119;28;20065;-60
2023/03/22 09:58:22;;;;;;;4.00;2.58;;;;;;;;;;5007740;28;20046;-60
2023/03/22 10:01:04;;;;;;;3.85;2.35;;;;;;;;;;5002827;28;20046;-60
2023/03/22 10:03:51;;;;;;;4.25;2.40;;;;;;;;;;5001823;28;20038;-61
2023/03/22 10:06:20;;;;;;;3.05;2.00;;;;;;;;;;5001518;28;20566;-60
2023/03/22 10:09:43;;;;;;;5.45;2.22;;;;;;;;;;4998472;28;20038;-60
2023/03/22 10:12:18;;;;;;;4.82;1.98;;;;;;;;;;5001381;28;20050;-60
2023/03/22 10:14:50;;;;;;;4.47;2.33;;;;;;;;;;5000681;28;20056;-61
2023/03/22 10:17:22;;;;;;;3.70;2.33;;;;;;;;;;5003038;28;20064;-60
2023/03/22 10:19:54;;;;;;;5.95;1.90;;;;;;;;;;5000114;28;20061;-60
2023/03/22 10:22:26;;;;;;;4.20;1.92;;;;;;;;;;5004659;28;20053;-61
2023/03/22 10:24:53;;;;;;;7.55;2.15;;;;;;;;;;5002399;28;20041;-60
2023/03/22 10:27:21;;;;;;;4.65;2.40;;;;;;;;;;4999398;28;20063;-61
2023/03/22 10:29:59;;;;;;;3.20;2.03;;;;;;;;;;5001607;28;20037;-60
2023/03/22 10:33:02;;;;;;;7.45;2.30;;;;;;;;;;5001196;28;20041;-60
2023/03/22 10:35:29;;;;;;;2.80;1.77;;;;;;;;;;5004848;28;20041;-60
2023/03/22 10:37:59;;;;;;;2.58;1.73;;;;;;;;;;5006663;28;20522;-61
2023/03/22 10:40:29;;;;;;;3.83;2.00;;;;;;;;;;5006683;28;20042;-61
2023/03/22 10:42:59;;;;;;;4.40;2.00;;;;;;;;;;5004734;28;20156;-60
2023/03/22 10:45:26;;;;;;;4.68;2.00;;;;;;;;;;5003003;28;20519;-60
2023/03/22 10:48:03;;;;;;;3.20;2.17;;;;;;;;;;5005082;28;20050;-60
2023/03/22 10:50:35;;;;;;;3.30;2.28;;;;;;;;;;5001084;28;20034;-61
2023/03/22 10:53:26;;;;;;;5.00;2.40;;;;;;;;;;5007886;28;20064;-61
2023/03/22 10:55:52;;;;;;;4.50;1.88;;;;;;;;;;5005324;28;20399;-61
2023/03/22 10:58:27;;;;;;;3.88;2.10;;;;;;;;;;5009095;28;20041;-61
2023/03/22 11:00:58;;;;;;;4.65;1.90;;;;;;;;;;5008694;28;20045;-61
2023/03/22 11:03:27;;;;;;;5.18;2.55;;;;;;;;;;5008968;28;20033;-61
2023/03/22 11:05:59;;;;;;;5.35;2.00;;;;;;;;;;5003559;28;20499;-61
2023/03/22 11:08:25;;;;;;;2.80;1.80;;;;;;;;;;5007108;28;20045;-61
2023/03/22 11:10:53;;;;;;;3.05;1.80;;;;;;;;;;5006400;28;20072;-61
2023/03/22 11:13:23;;;;;;;4.63;2.20;;;;;;;;;;5005935;28;20029;-61
2023/03/22 11:15:53;;;;;;;4.40;1.98;;;;;;;;;;5006623;28;20056;-61
2023/03/22 11:18:23;;;;;;;3.33;1.83;;;;;;;;;;5006930;28;20064;-60
2023/03/22 11:21:14;;;;;;;3.22;1.95;;;;;;;;;;5006410;28;20046;-61
2023/03/22 11:23:59;;;;;;;3.40;1.88;;;;;;;;;;5002891;28;20042;-61
2023/03/22 11:26:30;;;;;;;4.88;1.75;;;;;;;;;;5009036;28;20507;-61
2023/03/22 11:29:20;;;;;;;4.22;2.05;;;;;;;;;;5008712;28;20685;-61
2023/03/22 11:31:53;;;;;;;5.30;2.33;;;;;;;;;;5005221;28;20046;-61
2023/03/22 11:34:21;;;;;;;4.35;2.92;;;;;;;;;;5007580;28;20045;-61
2023/03/22 11:36:55;;;;;;;7.85;2.75;;;;;;;;;;5005686;28;20045;-60
2023/03/22 11:39:29;;;;;;;4.28;2.30;;;;;;;;;;5007933;28;20037;-61
2023/03/22 11:42:02;;;;;;;4.70;2.40;;;;;;;;;;5005274;28;20049;-60
2023/03/22 11:44:33;;;;;;;3.90;2.50;;;;;;;;;;5007936;28;20034;-62
2023/03/22 11:47:01;;;;;;;6.40;3.13;;;;;;;;;;5006544;28;20435;-61
2023/03/22 11:49:38;;;;;;;4.25;2.17;;;;;;;;;;5008057;28;20117;-61
2023/03/22 11:52:16;;;;;;;3.58;2.13;;;;;;;;;;5004758;28;20037;-61
2023/03/22 11:54:44;;;;;;;4.57;2.03;;;;;;;;;;5007943;28;20041;-60
2023/03/22 11:57:15;;;;;;;4.05;2.88;;;;;;;;;;5008964;28;20415;-59
2023/03/22 11:59:57;;;;;;;5.93;2.40;;;;;;;;;;5007524;28;20412;-59
2023/03/22 12:02:30;;;;;;;5.32;2.10;;;;;;;;;;5007894;28;20029;-60
2023/03/22 12:05:05;;;;;;;5.47;2.00;;;;;;;;;;5006288;28;20384;-60
2023/03/22 12:07:34;;;;;;;7.72;3.22;;;;;;;;;;5006447;28;20033;-60
2023/03/22 12:10:11;;;;;;;3.97;2.33;;;;;;;;;;5000867;28;20053;-58
2023/03/22 12:12:48;;;;;;;5.18;2.90;;;;;;;;;;5004013;28;20038;-61
2023/03/22 12:15:26;;;;;;;7.10;3.13;;;;;;;;;;5004788;28;20044;-60
2023/03/22 12:17:57;;;;;;;6.28;2.40;;;;;;;;;;5006165;28;20064;-61
2023/03/22 12:20:38;;;;;;;4.88;2.22;;;;;;;;;;5004726;28;20049;-62
2023/03/22 12:23:13;;;;;;;4.63;2.67;;;;;;;;;;5005391;28;20038;-62
2023/03/22 12:25:42;;;;;;;2.90;2.03;;;;;;;;;;5007250;28;20079;-61
2023/03/22 12:28:15;;;;;;;6.35;2.50;;;;;;;;;;5008403;28;20036;-61
2023/03/22 12:30:46;;;;;;;6.28;2.47;;;;;;;;;;4993623;28;20042;-62
2023/03/22 12:33:26;;;;;;;4.95;2.40;;;;;;;;;;5005231;28;20036;-61
2023/03/22 12:35:57;;;;;;;5.60;2.30;;;;;;;;;;5003710;28;20046;-61
2023/03/22 12:38:38;;;;;;;2.78;2.17;;;;;;;;;;5005622;28;20064;-59
2023/03/22 12:41:09;;;;;;;11.73;2.22;;;;;;;;;;5001361;28;20069;-59
2023/03/22 12:43:57;;;;;;;7.65;2.33;;;;;;;;;;5004295;28;20061;-60
2023/03/22 12:46:30;;;;;;;8.77;2.70;;;;;;;;;;5006458;28;20026;-60
2023/03/22 12:49:00;;;;;;;7.53;2.80;;;;;;;;;;5004900;28;20048;-60
2023/03/22 12:51:26;;;;;;;5.40;2.60;;;;;;;;;;5002400;28;20045;-60
2023/03/22 12:53:55;;;;;;;6.88;2.58;;;;;;;;;;5003578;28;20045;-62
2023/03/22 12:56:45;;;;;;;5.90;2.30;;;;;;;;;;5004199;28;20030;-63
2023/03/22 12:59:16;;;;;;;4.32;1.95;;;;;;;;;;5003267;28;20049;-62
2023/03/22 13:01:55;;;;;;;2.53;1.55;;;;;;;;;;5004634;28;20041;-60
2023/03/22 13:04:36;;;;;;;4.25;2.00;;;;;;;;;;5004405;28;20037;-62
2023/03/22 13:07:15;;;;;;;5.25;2.03;;;;;;;;;;5002744;28;20042;-62
2023/03/22 13:09:46;;;;;;;6.18;2.10;;;;;;;;;;5004879;28;20038;-60
2023/03/22 13:12:15;;;;;;;4.20;2.15;;;;;;;;;;5007030;28;20029;-61
2023/03/22 13:14:44;;;;;;;;;;;;;;;;;;5003572;28;20053;-60
2023/03/22 13:17:10;;;;;;;7.28;2.42;;;;;;;;;;5002959;28;19920;-60
2023/03/22 13:19:36;;;;;;;5.88;1.90;;;;;;;;;;5004199;28;20029;-60
2023/03/22 13:22:25;;;;;;;4.15;1.83;;;;;;;;;;5004904;28;20507;-60
2023/03/22 13:25:03;;;;;;;4.38;1.70;;;;;;;;;;5004249;28;20038;-61
2023/03/22 13:27:48;;;;;;;3.75;1.80;;;;;;;;;;5006363;28;20041;-60
2023/03/22 13:30:20;;;;;;;4.50;1.80;;;;;;;;;;5001330;28;20058;-60
2023/03/22 13:33:02;;;;;;;7.40;1.77;;;;;;;;;;5003379;28;20041;-60
2023/03/22 13:35:36;;;;;;;3.90;1.63;;;;;;;;;;5002707;28;20471;-60
2023/03/22 13:38:09;;;;;;;4.22;1.80;;;;;;;;;;5006146;28;20038;-60
2023/03/22 13:40:44;;;;;;;3.42;2.00;;;;;;;;;;5003140;28;20431;-60
2023/03/22 13:43:29;;;;;;;4.80;1.92;;;;;;;;;;5003649;28;20034;-61
2023/03/22 13:46:06;;;;;;;2.65;1.95;;;;;;;;;;5000307;28;20072;-62
2023/03/22 13:49:02;;;;;;;6.88;1.85;;;;;;;;;;5003975;28;20412;-62
2023/03/22 13:51:31;;;;;;;2.35;1.85;;;;;;;;;;5007750;28;20420;-62
2023/03/22 13:54:15;;;;;;;4.32;2.20;;;;;;;;;;5005353;28;20551;-61
2023/03/22 13:56:41;;;;;;;2.53;1.70;;;;;;;;;;5000081;28;20042;-61
2023/03/22 13:59:22;;;;;;;2.70;1.70;;;;;;;;;;5003413;28;20053;-62
2023/03/22 14:02:03;;;;;;;3.13;1.77;;;;;;;;;;5004029;28;20041;-62
2023/03/22 14:04:41;;;;;;;4.22;1.90;;;;;;;;;;5003710;28;20480;-62
2023/03/22 14:07:25;;;;;;;3.30;1.80;;;;;;;;;;5006262;28;20042;-62
2023/03/22 14:10:02;;;;;;;3.92;1.73;;;;;;;;;;5002185;28;20042;-61
2023/03/22 14:12:46;;;;;;;3.00;1.70;;;;;;;;;;5004990;28;20041;-62
2023/03/22 14:15:33;;;;;;;4.65;2.10;;;;;;;;;;5006253;28;20038;-61
2023/03/22 14:18:25;;;;;;;3.88;1.60;;;;;;;;;;5005761;28;20049;-60
2023/03/22 14:20:56;;;;;;;3.33;1.80;;;;;;;;;;5003332;28;20037;-62
2023/03/22 14:23:28;;;;;;;2.35;1.45;;;;;;;;;;5004452;28;20495;-62
2023/03/22 14:26:00;;;;;;;3.67;1.60;;;;;;;;;;5007726;28;20046;-61
2023/03/22 14:28:36;;;;;;;3.72;1.80;;;;;;;;;;5007205;28;20030;-62
2023/03/22 14:31:03;;;;;;;2.85;1.65;;;;;;;;;;5009434;28;20065;-61
2023/03/22 14:33:36;;;;;;;2.53;1.40;;;;;;;;;;5008691;28;20044;-62
2023/03/22 14:36:10;;;;;;;4.28;1.70;;;;;;;;;;5008872;28;20418;-62
2023/03/22 14:38:41;;;;;;;3.45;1.83;;;;;;;;;;5010738;28;20073;-61
2023/03/22 14:41:23;;;;;;;3.70;1.90;;;;;;;;;;5005531;28;20049;-61
2023/03/22 14:43:58;;;;;;;6.57;2.30;;;;;;;;;;5006472;28;20034;-62
2023/03/22 14:46:31;;;;;;;4.03;1.50;;;;;;;;;;5004379;28;20050;-62
2023/03/22 14:48:59;;;;;;;3.83;1.67;;;;;;;;;;5008873;28;20040;-61
2023/03/22 14:51:34;;;;;;;3.50;2.10;;;;;;;;;;5008361;28;20041;-62
2023/03/22 14:54:06;;;;;;;5.65;2.00;;;;;;;;;;5007842;28;20057;-61
2023/03/22 14:56:39;;;;;;;13.25;8.40;;;;;;;;;;5008625;28;20034;-61
2023/03/22 14:59:09;;;;;;;14.88;10.88;;;;;;;;;;5008447;28;20036;-61
2023/03/22 15:01:40;;;;;;;3.58;2.80;;;;;;;;;;5005901;28;20046;-61
2023/03/22 15:04:09;;;;;;;5.97;2.25;;;;;;;;;;5008600;28;20041;-61
2023/03/22 15:06:48;;;;;;;9.05;4.03;;;;;;;;;;5007706;28;20046;-61
2023/03/22 15:09:18;;;;;;;3.95;2.13;;;;;;;;;;5009406;28;20156;-61
2023/03/22 15:11:46;;;;;;;4.05;2.13;;;;;;;;;;5009316;28;20033;-61
2023/03/22 15:14:13;;;;;;;4.43;1.88;;;;;;;;;;5008487;28;20029;-61
2023/03/22 15:16:43;;;;;;;2.72;1.80;;;;;;;;;;5007526;28;20042;-61